sensor_id;sensor_type;location;lat;lon;timestamp;P1;durP1;ratioP1;P2;durP2;ratioP2
22543;SDS011;11438;52.044;8.716;2023-04-01T00:00:54;3.28;;;0.32;;
22543;SDS011;11438;52.044;8.716;2023-04-01T00:03:20;3.88;;;0.68;;
22543;SDS011;11438;52.044;8.716;2023-04-01T00:05:47;1.55;;;0.40;;
22543;SDS011;11438;52.044;8.716;2023-04-01T00:08:13;2.38;;;0.52;;
22543;SDS011;11438;52.044;8.716;2023-04-01T00:10:38;2.35;;;0.40;;
22543;SDS011;11438;52.044;8.716;2023-04-01T00:13:04;1.02;;;0.40;;
22543;SDS011;11438;52.044;8.716;2023-04-01T00:15:30;1.90;;;0.60;;
22543;SDS011;11438;52.044;8.716;2023-04-01T00:17:55;2.05;;;0.82;;
22543;SDS011;11438;52.044;8.716;2023-04-01T00:20:21;1.38;;;0.30;;
22543;SDS011;11438;52.044;8.716;2023-04-01T00:22:47;1.83;;;0.47;;
22543;SDS011;11438;52.044;8.716;2023-04-01T00:25:13;1.00;;;0.40;;
22543;SDS011;11438;52.044;8.716;2023-04-01T00:27:39;0.80;;;0.32;;
22543;SDS011;11438;52.044;8.716;2023-04-01T00:30:05;2.17;;;0.43;;
22543;SDS011;11438;52.044;8.716;2023-04-01T00:32:31;3.33;;;0.57;;
22543;SDS011;11438;52.044;8.716;2023-04-01T00:34:56;1.67;;;0.47;;
22543;SDS011;11438;52.044;8.716;2023-04-01T00:37:24;1.35;;;0.35;;
22543;SDS011;11438;52.044;8.716;2023-04-01T00:39:50;0.98;;;0.50;;
22543;SDS011;11438;52.044;8.716;2023-04-01T00:42:16;1.70;;;0.40;;
22543;SDS011;11438;52.044;8.716;2023-04-01T00:44:41;1.35;;;0.40;;
22543;SDS011;11438;52.044;8.716;2023-04-01T00:47:07;2.10;;;0.43;;
22543;SDS011;11438;52.044;8.716;2023-04-01T00:49:34;1.10;;;0.40;;
22543;SDS011;11438;52.044;8.716;2023-04-01T00:52:04;1.45;;;0.38;;
22543;SDS011;11438;52.044;8.716;2023-04-01T00:54:31;1.00;;;0.40;;
22543;SDS011;11438;52.044;8.716;2023-04-01T00:59:32;1.95;;;0.40;;
22543;SDS011;11438;52.044;8.716;2023-04-01T01:02:02;1.35;;;0.40;;
22543;SDS011;11438;52.044;8.716;2023-04-01T01:04:31;0.90;;;0.30;;
22543;SDS011;11438;52.044;8.716;2023-04-01T01:09:55;0.73;;;0.50;;
22543;SDS011;11438;52.044;8.716;2023-04-01T01:15:06;0.75;;;0.30;;
22543;SDS011;11438;52.044;8.716;2023-04-01T01:20:48;0.40;;;0.28;;
22543;SDS011;11438;52.044;8.716;2023-04-01T01:31:44;1.55;;;0.68;;
22543;SDS011;11438;52.044;8.716;2023-04-01T01:37:06;1.83;;;0.30;;
22543;SDS011;11438;52.044;8.716;2023-04-01T01:39:35;1.02;;;0.20;;
22543;SDS011;11438;52.044;8.716;2023-04-01T01:42:03;0.52;;;0.20;;
22543;SDS011;11438;52.044;8.716;2023-04-01T01:44:31;1.67;;;0.38;;
22543;SDS011;11438;52.044;8.716;2023-04-01T01:46:58;0.80;;;0.30;;
22543;SDS011;11438;52.044;8.716;2023-04-01T01:49:25;0.90;;;0.40;;
22543;SDS011;11438;52.044;8.716;2023-04-01T01:51:52;0.75;;;0.38;;
22543;SDS011;11438;52.044;8.716;2023-04-01T01:54:18;1.05;;;0.28;;
22543;SDS011;11438;52.044;8.716;2023-04-01T01:56:44;1.42;;;0.47;;
22543;SDS011;11438;52.044;8.716;2023-04-01T01:59:14;0.98;;;0.25;;
22543;SDS011;11438;52.044;8.716;2023-04-01T02:01:43;1.17;;;0.30;;
22543;SDS011;11438;52.044;8.716;2023-04-01T02:04:12;0.95;;;0.30;;
22543;SDS011;11438;52.044;8.716;2023-04-01T02:06:42;2.03;;;0.30;;
22543;SDS011;11438;52.044;8.716;2023-04-01T02:09:14;1.05;;;0.35;;
22543;SDS011;11438;52.044;8.716;2023-04-01T02:14:22;0.90;;;0.30;;
22543;SDS011;11438;52.044;8.716;2023-04-01T02:16:57;0.50;;;0.28;;
22543;SDS011;11438;52.044;8.716;2023-04-01T02:19:31;1.55;;;0.50;;
22543;SDS011;11438;52.044;8.716;2023-04-01T02:22:20;0.95;;;0.20;;
22543;SDS011;11438;52.044;8.716;2023-04-01T02:24:49;1.65;;;0.20;;
22543;SDS011;11438;52.044;8.716;2023-04-01T02:27:17;0.52;;;0.28;;
22543;SDS011;11438;52.044;8.716;2023-04-01T02:29:43;0.82;;;0.20;;
22543;SDS011;11438;52.044;8.716;2023-04-01T02:32:09;1.27;;;0.20;;
22543;SDS011;11438;52.044;8.716;2023-04-01T02:34:35;0.75;;;0.30;;
22543;SDS011;11438;52.044;8.716;2023-04-01T02:37:01;1.58;;;0.22;;
22543;SDS011;11438;52.044;8.716;2023-04-01T02:39:27;1.05;;;0.30;;
22543;SDS011;11438;52.044;8.716;2023-04-01T02:41:53;0.85;;;0.50;;
22543;SDS011;11438;52.044;8.716;2023-04-01T02:44:18;0.22;;;0.20;;
22543;SDS011;11438;52.044;8.716;2023-04-01T02:46:44;0.10;;;0.10;;
22543;SDS011;11438;52.044;8.716;2023-04-01T02:49:10;0.73;;;0.13;;
22543;SDS011;11438;52.044;8.716;2023-04-01T02:51:35;1.15;;;0.30;;
22543;SDS011;11438;52.044;8.716;2023-04-01T02:54:02;1.10;;;0.30;;
22543;SDS011;11438;52.044;8.716;2023-04-01T02:56:28;0.63;;;0.20;;
22543;SDS011;11438;52.044;8.716;2023-04-01T02:58:53;1.30;;;0.20;;
22543;SDS011;11438;52.044;8.716;2023-04-01T03:01:19;1.08;;;0.40;;
22543;SDS011;11438;52.044;8.716;2023-04-01T03:03:45;1.35;;;0.30;;
22543;SDS011;11438;52.044;8.716;2023-04-01T03:06:12;1.50;;;0.40;;
22543;SDS011;11438;52.044;8.716;2023-04-01T03:08:39;1.02;;;0.20;;
22543;SDS011;11438;52.044;8.716;2023-04-01T03:11:04;2.53;;;0.20;;
22543;SDS011;11438;52.044;8.716;2023-04-01T03:13:30;0.15;;;0.10;;
22543;SDS011;11438;52.044;8.716;2023-04-01T03:15:56;1.75;;;0.20;;
22543;SDS011;11438;52.044;8.716;2023-04-01T03:18:22;0.70;;;0.30;;
22543;SDS011;11438;52.044;8.716;2023-04-01T03:20:47;0.85;;;0.20;;
22543;SDS011;11438;52.044;8.716;2023-04-01T03:23:13;0.75;;;0.20;;
22543;SDS011;11438;52.044;8.716;2023-04-01T03:25:39;1.38;;;0.30;;
22543;SDS011;11438;52.044;8.716;2023-04-01T03:28:05;1.45;;;0.20;;
22543;SDS011;11438;52.044;8.716;2023-04-01T03:30:30;1.85;;;0.30;;
22543;SDS011;11438;52.044;8.716;2023-04-01T03:32:56;1.40;;;0.20;;
22543;SDS011;11438;52.044;8.716;2023-04-01T03:35:23;0.73;;;0.30;;
22543;SDS011;11438;52.044;8.716;2023-04-01T03:37:50;1.65;;;0.20;;
22543;SDS011;11438;52.044;8.716;2023-04-01T03:40:16;1.40;;;0.20;;
22543;SDS011;11438;52.044;8.716;2023-04-01T03:42:41;0.25;;;0.20;;
22543;SDS011;11438;52.044;8.716;2023-04-01T03:45:07;0.63;;;0.10;;
22543;SDS011;11438;52.044;8.716;2023-04-01T03:47:34;1.20;;;0.20;;
22543;SDS011;11438;52.044;8.716;2023-04-01T03:49:59;1.05;;;0.30;;
22543;SDS011;11438;52.044;8.716;2023-04-01T03:52:25;1.58;;;0.30;;
22543;SDS011;11438;52.044;8.716;2023-04-01T03:54:50;2.10;;;0.30;;
22543;SDS011;11438;52.044;8.716;2023-04-01T03:57:16;0.85;;;0.30;;
22543;SDS011;11438;52.044;8.716;2023-04-01T03:59:41;0.40;;;0.20;;
22543;SDS011;11438;52.044;8.716;2023-04-01T04:02:07;0.70;;;0.22;;
22543;SDS011;11438;52.044;8.716;2023-04-01T04:04:32;0.52;;;0.20;;
22543;SDS011;11438;52.044;8.716;2023-04-01T04:06:58;0.63;;;0.20;;
22543;SDS011;11438;52.044;8.716;2023-04-01T04:09:24;0.65;;;0.20;;
22543;SDS011;11438;52.044;8.716;2023-04-01T04:11:50;1.55;;;0.30;;
22543;SDS011;11438;52.044;8.716;2023-04-01T04:14:15;0.60;;;0.30;;
22543;SDS011;11438;52.044;8.716;2023-04-01T04:16:41;0.70;;;0.30;;
22543;SDS011;11438;52.044;8.716;2023-04-01T04:19:06;0.30;;;0.20;;
22543;SDS011;11438;52.044;8.716;2023-04-01T04:21:32;0.57;;;0.20;;
22543;SDS011;11438;52.044;8.716;2023-04-01T04:24:01;0.40;;;0.20;;
22543;SDS011;11438;52.044;8.716;2023-04-01T04:26:27;0.70;;;0.20;;
22543;SDS011;11438;52.044;8.716;2023-04-01T04:28:53;0.20;;;0.20;;
22543;SDS011;11438;52.044;8.716;2023-04-01T04:31:19;1.30;;;0.20;;
22543;SDS011;11438;52.044;8.716;2023-04-01T04:33:46;0.85;;;0.20;;
22543;SDS011;11438;52.044;8.716;2023-04-01T04:36:11;1.73;;;0.20;;
22543;SDS011;11438;52.044;8.716;2023-04-01T04:38:37;0.60;;;0.20;;
22543;SDS011;11438;52.044;8.716;2023-04-01T04:41:03;1.63;;;0.20;;
22543;SDS011;11438;52.044;8.716;2023-04-01T04:43:33;0.95;;;0.32;;
22543;SDS011;11438;52.044;8.716;2023-04-01T04:45:58;0.63;;;0.20;;
22543;SDS011;11438;52.044;8.716;2023-04-01T04:48:23;0.77;;;0.20;;
22543;SDS011;11438;52.044;8.716;2023-04-01T04:50:49;2.63;;;0.20;;
22543;SDS011;11438;52.044;8.716;2023-04-01T04:53:16;0.98;;;0.20;;
22543;SDS011;11438;52.044;8.716;2023-04-01T04:55:43;0.30;;;0.30;;
22543;SDS011;11438;52.044;8.716;2023-04-01T04:58:10;2.35;;;0.35;;
22543;SDS011;11438;52.044;8.716;2023-04-01T05:00:35;0.20;;;0.20;;
22543;SDS011;11438;52.044;8.716;2023-04-01T05:03:01;0.85;;;0.20;;
22543;SDS011;11438;52.044;8.716;2023-04-01T05:05:26;0.55;;;0.20;;
22543;SDS011;11438;52.044;8.716;2023-04-01T05:07:52;0.10;;;0.10;;
22543;SDS011;11438;52.044;8.716;2023-04-01T05:10:17;1.25;;;0.20;;
22543;SDS011;11438;52.044;8.716;2023-04-01T05:12:43;0.22;;;0.10;;
22543;SDS011;11438;52.044;8.716;2023-04-01T05:15:08;0.65;;;0.15;;
22543;SDS011;11438;52.044;8.716;2023-04-01T05:17:34;0.40;;;0.20;;
22543;SDS011;11438;52.044;8.716;2023-04-01T05:20:00;0.20;;;0.20;;
22543;SDS011;11438;52.044;8.716;2023-04-01T05:22:25;0.55;;;0.45;;
22543;SDS011;11438;52.044;8.716;2023-04-01T05:24:51;0.40;;;0.13;;
22543;SDS011;11438;52.044;8.716;2023-04-01T05:27:17;0.32;;;0.10;;
22543;SDS011;11438;52.044;8.716;2023-04-01T05:29:42;1.02;;;0.20;;
22543;SDS011;11438;52.044;8.716;2023-04-01T05:32:08;1.75;;;0.10;;
22543;SDS011;11438;52.044;8.716;2023-04-01T05:34:33;0.32;;;0.20;;
22543;SDS011;11438;52.044;8.716;2023-04-01T05:36:59;0.20;;;0.20;;
22543;SDS011;11438;52.044;8.716;2023-04-01T05:39:24;0.40;;;0.20;;
22543;SDS011;11438;52.044;8.716;2023-04-01T05:41:50;0.55;;;0.10;;
22543;SDS011;11438;52.044;8.716;2023-04-01T05:44:15;0.10;;;0.10;;
22543;SDS011;11438;52.044;8.716;2023-04-01T05:46:41;0.25;;;0.20;;
22543;SDS011;11438;52.044;8.716;2023-04-01T05:49:07;0.40;;;0.20;;
22543;SDS011;11438;52.044;8.716;2023-04-01T05:51:32;0.25;;;0.20;;
22543;SDS011;11438;52.044;8.716;2023-04-01T05:53:58;2.60;;;0.30;;
22543;SDS011;11438;52.044;8.716;2023-04-01T05:56:23;0.50;;;0.10;;
22543;SDS011;11438;52.044;8.716;2023-04-01T05:58:50;0.20;;;0.15;;
22543;SDS011;11438;52.044;8.716;2023-04-01T06:01:18;0.65;;;0.20;;
22543;SDS011;11438;52.044;8.716;2023-04-01T06:03:45;0.85;;;0.20;;
22543;SDS011;11438;52.044;8.716;2023-04-01T06:06:15;0.30;;;0.20;;
22543;SDS011;11438;52.044;8.716;2023-04-01T06:08:48;0.32;;;0.20;;
22543;SDS011;11438;52.044;8.716;2023-04-01T06:11:35;0.20;;;0.20;;
22543;SDS011;11438;52.044;8.716;2023-04-01T06:16:49;0.13;;;0.13;;
22543;SDS011;11438;52.044;8.716;2023-04-01T06:24:59;0.82;;;0.15;;
22543;SDS011;11438;52.044;8.716;2023-04-01T06:31:01;0.80;;;0.25;;
22543;SDS011;11438;52.044;8.716;2023-04-01T06:39:06;0.50;;;0.20;;
22543;SDS011;11438;52.044;8.716;2023-04-01T06:45:20;0.30;;;0.20;;
22543;SDS011;11438;52.044;8.716;2023-04-01T06:47:55;0.40;;;0.10;;
22543;SDS011;11438;52.044;8.716;2023-04-01T06:50:43;0.45;;;0.10;;
22543;SDS011;11438;52.044;8.716;2023-04-01T06:53:28;0.57;;;0.20;;
22543;SDS011;11438;52.044;8.716;2023-04-01T06:56:11;0.65;;;0.22;;
22543;SDS011;11438;52.044;8.716;2023-04-01T06:58:41;2.47;;;0.30;;
22543;SDS011;11438;52.044;8.716;2023-04-01T07:01:14;0.25;;;0.10;;
22543;SDS011;11438;52.044;8.716;2023-04-01T07:03:53;0.60;;;0.20;;
22543;SDS011;11438;52.044;8.716;2023-04-01T07:08:55;0.70;;;0.30;;
22543;SDS011;11438;52.044;8.716;2023-04-01T07:11:29;0.50;;;0.20;;
22543;SDS011;11438;52.044;8.716;2023-04-01T07:14:13;0.30;;;0.17;;
22543;SDS011;11438;52.044;8.716;2023-04-01T07:17:06;0.20;;;0.20;;
22543;SDS011;11438;52.044;8.716;2023-04-01T07:20:00;0.32;;;0.10;;
22543;SDS011;11438;52.044;8.716;2023-04-01T07:22:45;0.30;;;0.30;;
22543;SDS011;11438;52.044;8.716;2023-04-01T07:25:15;0.45;;;0.20;;
22543;SDS011;11438;52.044;8.716;2023-04-01T07:27:44;0.77;;;0.20;;
22543;SDS011;11438;52.044;8.716;2023-04-01T07:30:14;1.10;;;0.40;;
22543;SDS011;11438;52.044;8.716;2023-04-01T07:35:30;0.68;;;0.30;;
22543;SDS011;11438;52.044;8.716;2023-04-01T07:40:52;0.20;;;0.20;;
22543;SDS011;11438;52.044;8.716;2023-04-01T07:43:40;0.35;;;0.25;;
22543;SDS011;11438;52.044;8.716;2023-04-01T07:51:29;0.28;;;0.28;;
22543;SDS011;11438;52.044;8.716;2023-04-01T07:54:07;0.45;;;0.20;;
22543;SDS011;11438;52.044;8.716;2023-04-01T07:57:20;0.90;;;0.20;;
22543;SDS011;11438;52.044;8.716;2023-04-01T08:00:02;1.80;;;0.30;;
22543;SDS011;11438;52.044;8.716;2023-04-01T08:11:28;0.85;;;0.20;;
22543;SDS011;11438;52.044;8.716;2023-04-01T08:14:08;0.35;;;0.20;;
22543;SDS011;11438;52.044;8.716;2023-04-01T08:19:52;0.80;;;0.50;;
22543;SDS011;11438;52.044;8.716;2023-04-01T08:22:30;0.28;;;0.28;;
22543;SDS011;11438;52.044;8.716;2023-04-01T08:25:03;0.80;;;0.28;;
22543;SDS011;11438;52.044;8.716;2023-04-01T08:27:44;0.85;;;0.28;;
22543;SDS011;11438;52.044;8.716;2023-04-01T08:30:18;0.28;;;0.20;;
22543;SDS011;11438;52.044;8.716;2023-04-01T08:32:48;0.20;;;0.20;;
22543;SDS011;11438;52.044;8.716;2023-04-01T08:35:31;0.55;;;0.30;;
22543;SDS011;11438;52.044;8.716;2023-04-01T08:38:06;1.60;;;0.30;;
22543;SDS011;11438;52.044;8.716;2023-04-01T08:40:50;1.27;;;0.30;;
22543;SDS011;11438;52.044;8.716;2023-04-01T08:43:26;1.10;;;0.30;;
22543;SDS011;11438;52.044;8.716;2023-04-01T08:49:07;0.30;;;0.20;;
22543;SDS011;11438;52.044;8.716;2023-04-01T08:54:44;0.20;;;0.20;;
22543;SDS011;11438;52.044;8.716;2023-04-01T08:57:33;0.60;;;0.20;;
22543;SDS011;11438;52.044;8.716;2023-04-01T09:00:30;0.20;;;0.20;;
22543;SDS011;11438;52.044;8.716;2023-04-01T09:14:06;0.35;;;0.20;;
22543;SDS011;11438;52.044;8.716;2023-04-01T09:23:04;0.95;;;0.28;;
22543;SDS011;11438;52.044;8.716;2023-04-01T09:31:26;0.75;;;0.20;;
22543;SDS011;11438;52.044;8.716;2023-04-01T09:45:55;0.52;;;0.30;;
22543;SDS011;11438;52.044;8.716;2023-04-01T09:48:53;0.32;;;0.30;;
22543;SDS011;11438;52.044;8.716;2023-04-01T09:57:10;0.28;;;0.28;;
22543;SDS011;11438;52.044;8.716;2023-04-01T09:59:52;0.28;;;0.28;;
22543;SDS011;11438;52.044;8.716;2023-04-01T10:16:09;0.40;;;0.20;;
22543;SDS011;11438;52.044;8.716;2023-04-01T10:21:24;0.55;;;0.20;;
22543;SDS011;11438;52.044;8.716;2023-04-01T10:32:49;0.35;;;0.20;;
22543;SDS011;11438;52.044;8.716;2023-04-01T10:44:26;0.13;;;0.10;;
22543;SDS011;11438;52.044;8.716;2023-04-01T11:09:42;1.20;;;0.13;;
22543;SDS011;11438;52.044;8.716;2023-04-01T11:24:21;0.10;;;0.10;;
22543;SDS011;11438;52.044;8.716;2023-04-01T11:27:12;0.30;;;0.30;;
22543;SDS011;11438;52.044;8.716;2023-04-01T11:38:54;0.30;;;0.20;;
22543;SDS011;11438;52.044;8.716;2023-04-01T11:41:26;0.20;;;0.20;;
22543;SDS011;11438;52.044;8.716;2023-04-01T11:55:47;0.28;;;0.20;;
22543;SDS011;11438;52.044;8.716;2023-04-01T12:01:23;0.15;;;0.15;;
22543;SDS011;11438;52.044;8.716;2023-04-01T12:04:27;0.20;;;0.13;;
22543;SDS011;11438;52.044;8.716;2023-04-01T12:15:45;0.20;;;0.20;;
22543;SDS011;11438;52.044;8.716;2023-04-01T12:18:23;0.10;;;0.10;;
22543;SDS011;11438;52.044;8.716;2023-04-01T12:24:15;0.20;;;0.20;;
22543;SDS011;11438;52.044;8.716;2023-04-01T12:26:59;0.20;;;0.20;;
22543;SDS011;11438;52.044;8.716;2023-04-01T12:32:25;0.20;;;0.20;;
22543;SDS011;11438;52.044;8.716;2023-04-01T12:35:08;0.63;;;0.20;;
22543;SDS011;11438;52.044;8.716;2023-04-01T12:46:32;0.30;;;0.30;;
22543;SDS011;11438;52.044;8.716;2023-04-01T12:52:03;0.40;;;0.20;;
22543;SDS011;11438;52.044;8.716;2023-04-01T12:59:41;0.65;;;0.30;;
22543;SDS011;11438;52.044;8.716;2023-04-01T13:02:20;0.40;;;0.20;;
22543;SDS011;11438;52.044;8.716;2023-04-01T13:05:01;0.32;;;0.30;;
22543;SDS011;11438;52.044;8.716;2023-04-01T13:08:07;0.30;;;0.30;;
22543;SDS011;11438;52.044;8.716;2023-04-01T13:19:48;0.40;;;0.30;;
22543;SDS011;11438;52.044;8.716;2023-04-01T13:25:07;0.47;;;0.28;;
22543;SDS011;11438;52.044;8.716;2023-04-01T13:27:45;1.50;;;0.30;;
22543;SDS011;11438;52.044;8.716;2023-04-01T13:32:59;0.43;;;0.20;;
22543;SDS011;11438;52.044;8.716;2023-04-01T13:38:38;0.38;;;0.20;;
22543;SDS011;11438;52.044;8.716;2023-04-01T13:44:17;0.30;;;0.20;;
22543;SDS011;11438;52.044;8.716;2023-04-01T13:55:20;0.22;;;0.20;;
22543;SDS011;11438;52.044;8.716;2023-04-01T13:58:11;0.32;;;0.30;;
22543;SDS011;11438;52.044;8.716;2023-04-01T14:06:17;0.20;;;0.20;;
22543;SDS011;11438;52.044;8.716;2023-04-01T14:11:48;0.30;;;0.30;;
22543;SDS011;11438;52.044;8.716;2023-04-01T14:17:38;0.35;;;0.30;;
22543;SDS011;11438;52.044;8.716;2023-04-01T14:20:20;0.30;;;0.20;;
22543;SDS011;11438;52.044;8.716;2023-04-01T14:25:55;0.30;;;0.30;;
22543;SDS011;11438;52.044;8.716;2023-04-01T14:28:31;1.15;;;0.40;;
22543;SDS011;11438;52.044;8.716;2023-04-01T14:31:24;0.40;;;0.40;;
22543;SDS011;11438;52.044;8.716;2023-04-01T14:40:21;0.38;;;0.30;;
22543;SDS011;11438;52.044;8.716;2023-04-01T14:45:42;0.45;;;0.38;;
22543;SDS011;11438;52.044;8.716;2023-04-01T14:48:48;0.52;;;0.40;;
22543;SDS011;11438;52.044;8.716;2023-04-01T14:54:02;0.40;;;0.40;;
22543;SDS011;11438;52.044;8.716;2023-04-01T14:57:34;0.70;;;0.50;;
22543;SDS011;11438;52.044;8.716;2023-04-01T14:59:34;0.68;;;0.30;;
22543;SDS011;11438;52.044;8.716;2023-04-01T15:02:18;0.40;;;0.40;;
22543;SDS011;11438;52.044;8.716;2023-04-01T15:05:15;0.60;;;0.40;;
22543;SDS011;11438;52.044;8.716;2023-04-01T15:07:59;0.55;;;0.35;;
22543;SDS011;11438;52.044;8.716;2023-04-01T15:10:32;0.47;;;0.30;;
22543;SDS011;11438;52.044;8.716;2023-04-01T15:15:59;0.55;;;0.40;;
22543;SDS011;11438;52.044;8.716;2023-04-01T15:21:37;0.40;;;0.40;;
22543;SDS011;11438;52.044;8.716;2023-04-01T15:24:48;0.40;;;0.40;;
22543;SDS011;11438;52.044;8.716;2023-04-01T15:30:01;0.30;;;0.30;;
22543;SDS011;11438;52.044;8.716;2023-04-01T15:32:51;0.60;;;0.30;;
22543;SDS011;11438;52.044;8.716;2023-04-01T15:35:51;1.10;;;0.30;;
22543;SDS011;11438;52.044;8.716;2023-04-01T15:38:38;0.40;;;0.40;;
22543;SDS011;11438;52.044;8.716;2023-04-01T15:41:16;0.57;;;0.40;;
22543;SDS011;11438;52.044;8.716;2023-04-01T15:43:50;0.47;;;0.25;;
22543;SDS011;11438;52.044;8.716;2023-04-01T15:49:19;0.43;;;0.20;;
22543;SDS011;11438;52.044;8.716;2023-04-01T15:54:48;0.20;;;0.20;;
22543;SDS011;11438;52.044;8.716;2023-04-01T15:57:44;0.20;;;0.20;;
22543;SDS011;11438;52.044;8.716;2023-04-01T16:00:48;0.40;;;0.30;;
22543;SDS011;11438;52.044;8.716;2023-04-01T16:09:09;0.30;;;0.20;;
22543;SDS011;11438;52.044;8.716;2023-04-01T16:12:16;0.80;;;0.38;;
22543;SDS011;11438;52.044;8.716;2023-04-01T16:17:27;1.00;;;0.45;;
22543;SDS011;11438;52.044;8.716;2023-04-01T16:22:35;0.22;;;0.20;;
22543;SDS011;11438;52.044;8.716;2023-04-01T16:25:26;0.22;;;0.22;;
22543;SDS011;11438;52.044;8.716;2023-04-01T16:28:09;0.22;;;0.20;;
22543;SDS011;11438;52.044;8.716;2023-04-01T16:30:58;0.35;;;0.30;;
22543;SDS011;11438;52.044;8.716;2023-04-01T16:36:12;0.90;;;0.50;;
22543;SDS011;11438;52.044;8.716;2023-04-01T16:41:47;0.38;;;0.32;;
22543;SDS011;11438;52.044;8.716;2023-04-01T16:44:24;0.80;;;0.40;;
22543;SDS011;11438;52.044;8.716;2023-04-01T16:49:36;0.70;;;0.70;;
22543;SDS011;11438;52.044;8.716;2023-04-01T16:52:13;1.67;;;1.05;;
22543;SDS011;11438;52.044;8.716;2023-04-01T16:54:58;1.98;;;0.98;;
22543;SDS011;11438;52.044;8.716;2023-04-01T17:00:16;3.10;;;1.10;;
22543;SDS011;11438;52.044;8.716;2023-04-01T17:05:36;2.67;;;1.10;;
22543;SDS011;11438;52.044;8.716;2023-04-01T17:08:22;3.75;;;1.50;;
22543;SDS011;11438;52.044;8.716;2023-04-01T17:10:53;2.65;;;1.00;;
22543;SDS011;11438;52.044;8.716;2023-04-01T17:24:57;0.70;;;0.70;;
22543;SDS011;11438;52.044;8.716;2023-04-01T17:41:51;1.45;;;0.57;;
22543;SDS011;11438;52.044;8.716;2023-04-01T17:47:36;0.50;;;0.50;;
22543;SDS011;11438;52.044;8.716;2023-04-01T17:50:22;0.60;;;0.60;;
22543;SDS011;11438;52.044;8.716;2023-04-01T17:52:59;0.77;;;0.50;;
22543;SDS011;11438;52.044;8.716;2023-04-01T17:55:39;0.55;;;0.40;;
22543;SDS011;11438;52.044;8.716;2023-04-01T17:58:21;0.50;;;0.40;;
22543;SDS011;11438;52.044;8.716;2023-04-01T18:01:35;0.40;;;0.40;;
22543;SDS011;11438;52.044;8.716;2023-04-01T18:04:21;0.38;;;0.38;;
22543;SDS011;11438;52.044;8.716;2023-04-01T18:07:06;0.40;;;0.40;;
22543;SDS011;11438;52.044;8.716;2023-04-01T18:10:13;2.33;;;0.50;;
22543;SDS011;11438;52.044;8.716;2023-04-01T18:22:02;0.45;;;0.40;;
22543;SDS011;11438;52.044;8.716;2023-04-01T18:25:01;0.50;;;0.40;;
22543;SDS011;11438;52.044;8.716;2023-04-01T18:27:55;0.40;;;0.40;;
22543;SDS011;11438;52.044;8.716;2023-04-01T18:30:35;0.40;;;0.40;;
22543;SDS011;11438;52.044;8.716;2023-04-01T18:33:06;0.43;;;0.40;;
22543;SDS011;11438;52.044;8.716;2023-04-01T18:35:47;0.40;;;0.40;;
22543;SDS011;11438;52.044;8.716;2023-04-01T18:38:19;0.77;;;0.40;;
22543;SDS011;11438;52.044;8.716;2023-04-01T18:49:45;0.60;;;0.40;;
22543;SDS011;11438;52.044;8.716;2023-04-01T18:55:29;0.40;;;0.40;;
22543;SDS011;11438;52.044;8.716;2023-04-01T19:03:52;0.55;;;0.50;;
22543;SDS011;11438;52.044;8.716;2023-04-01T19:06:34;1.23;;;0.75;;
22543;SDS011;11438;52.044;8.716;2023-04-01T19:09:17;0.88;;;0.80;;
22543;SDS011;11438;52.044;8.716;2023-04-01T19:11:58;0.65;;;0.65;;
22543;SDS011;11438;52.044;8.716;2023-04-01T19:14:51;0.68;;;0.68;;
22543;SDS011;11438;52.044;8.716;2023-04-01T19:17:56;0.82;;;0.70;;
22543;SDS011;11438;52.044;8.716;2023-04-01T19:20:47;1.63;;;1.10;;
22543;SDS011;11438;52.044;8.716;2023-04-01T19:35:10;1.13;;;1.00;;
22543;SDS011;11438;52.044;8.716;2023-04-01T19:37:57;1.20;;;0.90;;
22543;SDS011;11438;52.044;8.716;2023-04-01T19:43:48;0.80;;;0.80;;
22543;SDS011;11438;52.044;8.716;2023-04-01T19:46:36;0.80;;;0.80;;
22543;SDS011;11438;52.044;8.716;2023-04-01T19:49:14;0.80;;;0.80;;
22543;SDS011;11438;52.044;8.716;2023-04-01T19:55:01;1.05;;;1.00;;
22543;SDS011;11438;52.044;8.716;2023-04-01T19:57:39;0.80;;;0.80;;
22543;SDS011;11438;52.044;8.716;2023-04-01T20:03:03;1.23;;;1.10;;
22543;SDS011;11438;52.044;8.716;2023-04-01T20:05:42;1.10;;;1.00;;
22543;SDS011;11438;52.044;8.716;2023-04-01T20:10:59;1.77;;;0.82;;
22543;SDS011;11438;52.044;8.716;2023-04-01T20:13:44;0.90;;;0.75;;
22543;SDS011;11438;52.044;8.716;2023-04-01T20:16:20;0.65;;;0.65;;
22543;SDS011;11438;52.044;8.716;2023-04-01T20:18:51;0.70;;;0.70;;
22543;SDS011;11438;52.044;8.716;2023-04-01T20:24:21;1.10;;;0.60;;
22543;SDS011;11438;52.044;8.716;2023-04-01T20:26:51;2.20;;;0.90;;
22543;SDS011;11438;52.044;8.716;2023-04-01T20:35:18;1.30;;;1.08;;
22543;SDS011;11438;52.044;8.716;2023-04-01T20:43:52;2.47;;;1.60;;
22543;SDS011;11438;52.044;8.716;2023-04-01T20:46:47;2.08;;;1.40;;
22543;SDS011;11438;52.044;8.716;2023-04-01T20:54:59;1.20;;;1.10;;
22543;SDS011;11438;52.044;8.716;2023-04-01T20:58:09;1.00;;;0.90;;
22543;SDS011;11438;52.044;8.716;2023-04-01T21:03:45;1.17;;;1.08;;
22543;SDS011;11438;52.044;8.716;2023-04-01T21:06:47;1.38;;;1.00;;
22543;SDS011;11438;52.044;8.716;2023-04-01T21:12:30;1.10;;;0.90;;
22543;SDS011;11438;52.044;8.716;2023-04-01T21:23:46;1.85;;;1.20;;
22543;SDS011;11438;52.044;8.716;2023-04-01T21:29:35;1.38;;;1.00;;
22543;SDS011;11438;52.044;8.716;2023-04-01T21:32:20;0.80;;;0.70;;
22543;SDS011;11438;52.044;8.716;2023-04-01T21:35:22;1.40;;;0.93;;
22543;SDS011;11438;52.044;8.716;2023-04-01T21:41:24;1.42;;;1.30;;
22543;SDS011;11438;52.044;8.716;2023-04-01T21:52:48;1.55;;;1.30;;
22543;SDS011;11438;52.044;8.716;2023-04-01T22:06:10;1.30;;;1.10;;
22543;SDS011;11438;52.044;8.716;2023-04-01T22:11:26;1.10;;;0.90;;
22543;SDS011;11438;52.044;8.716;2023-04-01T22:14:18;1.20;;;1.10;;
22543;SDS011;11438;52.044;8.716;2023-04-01T22:16:57;1.27;;;1.08;;
22543;SDS011;11438;52.044;8.716;2023-04-01T22:19:42;1.40;;;1.13;;
22543;SDS011;11438;52.044;8.716;2023-04-01T22:22:49;1.50;;;1.13;;
22543;SDS011;11438;52.044;8.716;2023-04-01T22:28:36;1.40;;;1.20;;
22543;SDS011;11438;52.044;8.716;2023-04-01T22:31:10;2.42;;;1.42;;
22543;SDS011;11438;52.044;8.716;2023-04-01T22:36:36;1.23;;;0.90;;
22543;SDS011;11438;52.044;8.716;2023-04-01T22:39:17;1.20;;;1.08;;
22543;SDS011;11438;52.044;8.716;2023-04-01T22:42:00;1.15;;;1.00;;
22543;SDS011;11438;52.044;8.716;2023-04-01T22:47:56;0.90;;;0.63;;
22543;SDS011;11438;52.044;8.716;2023-04-01T22:53:30;1.45;;;0.75;;
22543;SDS011;11438;52.044;8.716;2023-04-01T22:56:20;1.00;;;0.80;;
22543;SDS011;11438;52.044;8.716;2023-04-01T22:58:56;0.73;;;0.50;;
22543;SDS011;11438;52.044;8.716;2023-04-01T23:01:28;0.63;;;0.63;;
22543;SDS011;11438;52.044;8.716;2023-04-01T23:03:58;0.95;;;0.70;;
22543;SDS011;11438;52.044;8.716;2023-04-01T23:06:29;1.00;;;0.73;;
22543;SDS011;11438;52.044;8.716;2023-04-01T23:09:07;0.95;;;0.80;;
22543;SDS011;11438;52.044;8.716;2023-04-01T23:16:48;1.00;;;0.90;;
22543;SDS011;11438;52.044;8.716;2023-04-01T23:25:33;1.42;;;0.93;;
22543;SDS011;11438;52.044;8.716;2023-04-01T23:29:11;1.20;;;0.90;;
22543;SDS011;11438;52.044;8.716;2023-04-01T23:34:05;1.88;;;1.10;;
22543;SDS011;11438;52.044;8.716;2023-04-01T23:36:48;1.48;;;1.00;;
22543;SDS011;11438;52.044;8.716;2023-04-01T23:39:28;2.83;;;1.02;;
22543;SDS011;11438;52.044;8.716;2023-04-01T23:41:56;1.25;;;0.95;;
22543;SDS011;11438;52.044;8.716;2023-04-01T23:44:28;1.48;;;1.10;;
22543;SDS011;11438;52.044;8.716;2023-04-01T23:46:55;2.28;;;1.20;;
22543;SDS011;11438;52.044;8.716;2023-04-01T23:49:23;2.58;;;1.40;;
22543;SDS011;11438;52.044;8.716;2023-04-01T23:51:58;1.73;;;1.30;;
22543;SDS011;11438;52.044;8.716;2023-04-01T23:57:37;2.33;;;1.42;;
